createdAt,value
2023-04-16T00:03:15.358Z,8.19
2023-04-16T00:07:18.673Z,8.23
2023-04-16T00:11:21.389Z,8.28
2023-04-16T00:15:23.207Z,8.21
2023-04-16T00:19:24.905Z,8.20
2023-04-16T00:23:26.554Z,8.18
2023-04-16T00:27:28.199Z,8.21
2023-04-16T00:31:31.715Z,8.21
2023-04-16T00:35:33.480Z,8.19
2023-04-16T00:39:35.359Z,8.21
2023-04-16T00:43:37.124Z,8.19
2023-04-16T00:47:41.365Z,8.20
2023-04-16T00:51:43.051Z,8.20
2023-04-16T00:55:46.270Z,8.26
2023-04-16T00:59:48.048Z,8.25
2023-04-16T01:03:49.986Z,8.20
2023-04-16T01:07:52.198Z,8.19
2023-04-16T01:11:53.873Z,8.24
2023-04-16T01:15:56.036Z,8.20
2023-04-16T01:20:01.151Z,8.24
2023-04-16T01:24:04.773Z,8.28
2023-04-16T01:28:07.391Z,8.26
2023-04-16T01:32:11.758Z,8.27
2023-04-16T01:36:16.205Z,8.25
2023-04-16T01:40:18.988Z,8.30
2023-04-16T01:44:23.296Z,8.27
2023-04-16T01:48:24.985Z,8.22
2023-04-16T01:52:26.809Z,8.29
2023-04-16T01:56:28.475Z,8.32
2023-04-16T02:00:30.604Z,8.30
2023-04-16T02:04:34.190Z,8.31
2023-04-16T02:08:36.356Z,8.35
2023-04-16T02:12:38.059Z,8.39
2023-04-16T02:16:40.105Z,8.40
2023-04-16T02:21:14.270Z,8.44
2023-04-16T02:25:18.063Z,8.41
2023-04-16T02:29:20.637Z,8.44
2023-04-16T02:33:28.954Z,8.42
2023-04-16T02:37:40.866Z,8.42
2023-04-16T02:41:42.657Z,8.42
2023-04-16T02:45:44.923Z,8.44
2023-04-16T02:49:46.694Z,8.47
2023-04-16T02:53:48.580Z,8.41
2023-04-16T02:57:50.365Z,8.47
2023-04-16T03:01:52.212Z,8.42
2023-04-16T03:05:54.039Z,8.40
2023-04-16T03:09:55.700Z,8.43
2023-04-16T03:13:57.402Z,8.49
2023-04-16T03:17:59.589Z,8.48
2023-04-16T03:22:01.452Z,8.53
2023-04-16T03:26:03.372Z,8.51
2023-04-16T03:30:06.644Z,8.51
2023-04-16T03:34:09.697Z,8.52
2023-04-16T03:38:11.480Z,8.52
2023-04-16T03:42:13.967Z,8.54
2023-04-16T03:46:16.425Z,8.51
2023-04-16T03:50:19.886Z,8.47
2023-04-16T03:54:22.939Z,8.46
2023-04-16T03:58:31.832Z,8.48
2023-04-16T04:02:40.782Z,8.48
2023-04-16T04:06:48.463Z,8.51
2023-04-16T04:10:51.356Z,8.48
2023-04-16T04:14:54.738Z,8.51
2023-04-16T04:18:56.555Z,8.50
2023-04-16T04:22:58.809Z,8.51
2023-04-16T04:27:02.234Z,8.55
2023-04-16T04:31:04.388Z,8.54
2023-04-16T04:35:07.065Z,8.52
2023-04-16T04:39:09.232Z,8.51
2023-04-16T04:43:11.696Z,8.53
2023-04-16T04:47:14.433Z,8.55
2023-04-16T04:51:16.209Z,8.52
2023-04-16T04:55:20.646Z,8.50
2023-04-16T04:59:23.803Z,8.51
2023-04-16T05:03:26.426Z,8.50
2023-04-16T05:07:28.186Z,8.52
2023-04-16T05:11:29.974Z,8.49
2023-04-16T05:15:31.637Z,8.50
2023-04-16T05:19:33.573Z,8.55
2023-04-16T05:23:35.451Z,8.61
2023-04-16T05:27:37.355Z,8.65
2023-04-16T05:31:39.005Z,8.71
2023-04-16T05:35:40.618Z,8.70
2023-04-16T05:39:44.248Z,8.70
2023-04-16T05:43:45.892Z,8.74
2023-04-16T05:47:47.973Z,8.71
2023-04-16T05:51:50.821Z,8.78
2023-04-16T05:55:52.795Z,8.81
2023-04-16T05:59:54.468Z,8.77
2023-04-16T06:03:56.246Z,8.82
2023-04-16T06:07:57.980Z,8.83
2023-04-16T06:11:59.922Z,8.87
2023-04-16T06:16:01.623Z,8.92
2023-04-16T06:20:03.590Z,8.90
2023-04-16T06:24:07.659Z,8.90
2023-04-16T06:28:09.324Z,8.90
2023-04-16T06:32:11.320Z,8.90
2023-04-16T06:36:13.123Z,8.94
2023-04-16T06:40:14.879Z,9.02
2023-04-16T06:44:16.584Z,9.03
2023-04-16T06:48:18.236Z,9.11
2023-04-16T06:52:19.964Z,9.09
2023-04-16T06:56:21.697Z,9.11
2023-04-16T07:00:23.345Z,9.21
2023-04-16T07:04:25.659Z,9.20
2023-04-16T07:08:27.530Z,9.25
2023-04-16T07:12:31.634Z,9.24
2023-04-16T07:16:33.325Z,9.30
2023-04-16T07:20:36.297Z,9.35
2023-04-16T07:24:38.151Z,9.29
2023-04-16T07:28:40.140Z,9.19
2023-04-16T07:32:53.336Z,9.00
2023-04-16T07:36:59.024Z,8.83
2023-04-16T07:41:01.139Z,8.74
2023-04-16T07:45:02.909Z,8.72
2023-04-16T07:49:09.785Z,8.71
2023-04-16T07:53:28.130Z,8.77
2023-04-16T07:57:37.761Z,8.65
2023-04-16T08:02:02.351Z,8.64
2023-04-16T08:06:05.866Z,8.65
2023-04-16T08:10:09.034Z,8.59
2023-04-16T08:14:10.701Z,8.58
2023-04-16T08:18:15.776Z,8.66
2023-04-16T08:22:17.606Z,8.71
2023-04-16T08:26:19.377Z,8.69
2023-04-16T08:30:22.151Z,8.73
2023-04-16T08:34:23.816Z,8.65
2023-04-16T08:38:26.559Z,8.70
2023-04-16T08:42:33.829Z,8.75
2023-04-16T08:46:38.130Z,8.71
2023-04-16T08:50:41.165Z,8.72
2023-04-16T08:55:03.200Z,8.76
2023-04-16T08:59:07.295Z,8.82
2023-04-16T09:03:10.402Z,8.88
2023-04-16T09:07:12.729Z,8.96
2023-04-16T09:11:18.284Z,9.02
2023-04-16T09:15:21.104Z,9.16
2023-04-16T09:19:23.636Z,9.24
2023-04-16T09:23:25.554Z,9.34
2023-04-16T09:27:27.577Z,9.41
2023-04-16T09:31:29.493Z,9.41
2023-04-16T09:35:45.824Z,9.47
2023-04-16T09:39:57.807Z,9.50
2023-04-16T09:44:02.105Z,9.51
2023-04-16T09:48:06.140Z,9.58
2023-04-16T09:52:14.809Z,9.65
2023-04-16T09:56:16.848Z,9.76
2023-04-16T10:00:19.103Z,9.88
2023-04-16T10:04:22.483Z,9.93
2023-04-16T10:08:24.325Z,10.01
2023-04-16T10:12:27.345Z,10.08
2023-04-16T10:16:29.734Z,10.11
2023-04-16T10:20:32.006Z,10.11
2023-04-16T10:24:35.110Z,10.10
2023-04-16T10:28:37.190Z,10.10
2023-04-16T10:32:39.640Z,10.19
2023-04-16T10:36:41.530Z,10.27
2023-04-16T10:40:45.066Z,10.32
2023-04-16T10:44:46.755Z,10.28
2023-04-16T10:48:50.815Z,10.33
2023-04-16T10:53:26.677Z,10.39
2023-04-16T10:57:29.393Z,10.36
2023-04-16T11:01:42.287Z,10.44
2023-04-16T11:05:49.619Z,10.55
2023-04-16T11:10:05.966Z,10.63
2023-04-16T11:14:11.035Z,10.65
2023-04-16T11:18:12.715Z,10.58
2023-04-16T11:22:17.540Z,10.62
2023-04-16T11:26:29.644Z,10.68
2023-04-16T11:30:36.135Z,10.77
2023-04-16T11:34:46.223Z,10.86
2023-04-16T11:38:47.957Z,10.90
2023-04-16T11:42:50.844Z,10.94
2023-04-16T11:46:54.485Z,11.05
2023-04-16T11:50:58.085Z,11.05
2023-04-16T11:55:00.567Z,11.10
2023-04-16T11:59:23.236Z,11.07
2023-04-16T12:03:49.879Z,11.14
2023-04-16T12:07:52.732Z,11.10
2023-04-16T12:11:54.461Z,11.27
2023-04-16T12:15:57.177Z,11.49
2023-04-16T12:20:08.148Z,11.63
2023-04-16T12:24:13.655Z,11.69
2023-04-16T12:28:57.294Z,11.90
2023-04-16T12:33:19.106Z,12.17
2023-04-16T12:37:30.816Z,12.27
2023-04-16T12:41:32.569Z,12.42
2023-04-16T12:45:34.481Z,12.42
2023-04-16T12:49:36.713Z,12.22
2023-04-16T12:53:38.445Z,12.05
2023-04-16T12:57:40.706Z,11.90
2023-04-16T13:01:42.438Z,11.73
2023-04-16T13:05:47.093Z,11.62
2023-04-16T13:09:50.964Z,11.54
2023-04-16T13:13:53.795Z,11.52
2023-04-16T13:18:04.547Z,11.46
2023-04-16T13:22:06.538Z,11.40
2023-04-16T13:26:08.203Z,11.40
2023-04-16T13:30:20.719Z,11.49
2023-04-16T13:34:22.449Z,11.65
2023-04-16T13:38:26.393Z,11.86
2023-04-16T13:42:28.583Z,12.03
2023-04-16T13:46:31.195Z,12.17
2023-04-16T13:50:32.986Z,12.34
2023-04-16T13:54:34.695Z,12.61
2023-04-16T13:58:36.420Z,12.66
2023-04-16T14:02:38.206Z,12.66
2023-04-16T14:06:40.632Z,12.68
2023-04-16T14:10:42.538Z,12.72
2023-04-16T14:14:44.352Z,12.72
2023-04-16T14:18:46.194Z,12.69
2023-04-16T14:22:47.974Z,12.63
2023-04-16T14:26:50.532Z,12.52
2023-04-16T14:30:52.146Z,12.43
2023-04-16T14:34:53.828Z,12.28
2023-04-16T14:38:55.732Z,12.21
2023-04-16T14:42:57.479Z,12.27
2023-04-16T14:46:59.263Z,12.34
2023-04-16T14:51:01.290Z,12.35
2023-04-16T14:55:03.252Z,12.36
2023-04-16T14:59:05.053Z,12.33
2023-04-16T15:03:06.914Z,12.30
2023-04-16T15:07:08.890Z,12.22
2023-04-16T15:11:10.658Z,12.18
2023-04-16T15:15:12.423Z,12.17
2023-04-16T15:19:14.336Z,12.12
2023-04-16T15:23:16.351Z,12.00
2023-04-16T15:27:18.489Z,11.95
2023-04-16T15:31:21.155Z,11.86
2023-04-16T15:35:23.107Z,11.77
2023-04-16T15:39:24.814Z,11.70
2023-04-16T15:43:29.068Z,11.67
2023-04-16T15:47:30.913Z,11.64
2023-04-16T15:51:32.613Z,11.63
2023-04-16T15:55:35.109Z,11.67
2023-04-16T15:59:37.109Z,11.72
2023-04-16T16:03:40.665Z,11.76
2023-04-16T16:07:43.598Z,11.74
2023-04-16T16:11:47.134Z,11.73
2023-04-16T16:15:50.824Z,11.75
2023-04-16T16:19:52.686Z,11.74
2023-04-16T16:23:54.436Z,11.74
2023-04-16T16:27:56.315Z,11.74
2023-04-16T16:31:58.207Z,11.71
2023-04-16T16:35:59.993Z,11.70
2023-04-16T16:40:01.917Z,11.69
2023-04-16T16:44:03.636Z,11.67
2023-04-16T16:48:07.726Z,11.62
2023-04-16T16:52:09.543Z,11.55
2023-04-16T16:56:11.275Z,11.45
2023-04-16T17:00:14.588Z,11.39
2023-04-16T17:04:19.362Z,11.33
2023-04-16T17:08:22.040Z,11.30
2023-04-16T17:12:23.868Z,11.25
2023-04-16T17:16:25.806Z,11.22
2023-04-16T17:20:28.070Z,11.15
2023-04-16T17:24:29.773Z,11.06
2023-04-16T17:28:31.663Z,11.00
2023-04-16T17:32:34.740Z,10.93
2023-04-16T17:36:37.014Z,10.89
2023-04-16T17:40:38.758Z,10.82
2023-04-16T17:44:43.449Z,10.77
2023-04-16T17:48:45.339Z,10.72
2023-04-16T17:52:50.049Z,10.65
2023-04-16T17:56:51.860Z,10.61
2023-04-16T18:00:53.634Z,10.56
2023-04-16T18:04:55.630Z,10.49
2023-04-16T18:08:57.558Z,10.40
2023-04-16T18:12:59.512Z,10.37
2023-04-16T18:17:03.698Z,10.33
2023-04-16T18:21:07.823Z,10.26
2023-04-16T18:25:09.490Z,10.25
2023-04-16T18:29:12.470Z,10.20
2023-04-16T18:37:20.184Z,10.17
2023-04-16T18:41:22.058Z,10.16
2023-04-16T18:45:23.926Z,10.13
2023-04-16T18:49:25.808Z,10.07
2023-04-16T18:53:28.656Z,10.04
2023-04-16T18:57:30.256Z,10.00
2023-04-16T19:01:31.909Z,9.97
2023-04-16T19:05:33.808Z,9.96
2023-04-16T19:09:35.885Z,9.96
2023-04-16T19:13:42.079Z,9.93
2023-04-16T19:17:47.107Z,9.89
2023-04-16T19:21:50.407Z,9.83
2023-04-16T19:25:52.147Z,9.78
2023-04-16T19:29:54.609Z,9.67
2023-04-16T19:33:56.367Z,9.60
2023-04-16T19:37:58.732Z,9.57
2023-04-16T19:42:01.882Z,9.56
2023-04-16T19:46:03.795Z,9.52
2023-04-16T19:50:06.148Z,9.47
2023-04-16T19:54:07.836Z,9.47
2023-04-16T19:58:09.845Z,9.49
2023-04-16T20:02:11.659Z,9.50
2023-04-16T20:06:13.687Z,9.52
2023-04-16T20:10:15.560Z,9.53
2023-04-16T20:14:17.472Z,9.56
2023-04-16T20:18:19.649Z,9.58
2023-04-16T20:22:21.361Z,9.55
2023-04-16T20:26:24.851Z,9.55
2023-04-16T20:30:29.538Z,9.50
2023-04-16T20:34:31.237Z,9.51
2023-04-16T20:38:34.420Z,9.49
2023-04-16T20:42:36.437Z,9.50
2023-04-16T20:46:38.943Z,9.50
2023-04-16T20:50:40.779Z,9.44
2023-04-16T20:54:42.668Z,9.42
2023-04-16T20:58:44.512Z,9.43
2023-04-16T21:02:46.520Z,9.40
2023-04-16T21:06:49.310Z,9.40
2023-04-16T21:10:51.425Z,9.39
2023-04-16T21:14:53.285Z,9.35
2023-04-16T21:18:55.932Z,9.36
2023-04-16T21:22:57.667Z,9.39
2023-04-16T21:26:59.418Z,9.39
2023-04-16T21:31:01.317Z,9.37
2023-04-16T21:35:03.994Z,9.31
2023-04-16T21:39:05.895Z,9.30
2023-04-16T21:43:07.528Z,9.29
2023-04-16T21:47:09.175Z,9.29
2023-04-16T21:51:11.351Z,9.26
2023-04-16T21:55:14.416Z,9.30
2023-04-16T21:59:17.040Z,9.29
2023-04-16T22:03:19.058Z,9.27
2023-04-16T22:07:20.988Z,9.28
2023-04-16T22:11:22.965Z,9.21
2023-04-16T22:15:24.922Z,9.19
2023-04-16T22:19:26.714Z,9.16
2023-04-16T22:23:28.384Z,9.16
2023-04-16T22:27:30.084Z,9.17
2023-04-16T22:31:31.863Z,9.13
2023-04-16T22:35:33.739Z,9.09
2023-04-16T22:39:35.730Z,9.07
2023-04-16T22:43:37.985Z,9.05
2023-04-16T22:47:40.006Z,9.01
2023-04-16T22:51:41.669Z,9.02
2023-04-16T22:55:43.515Z,9.02
2023-04-16T22:59:47.032Z,9.01
2023-04-16T23:03:49.051Z,9.06
2023-04-16T23:07:50.751Z,9.04
2023-04-16T23:11:52.381Z,9.05
2023-04-16T23:15:54.025Z,9.07
2023-04-16T23:19:55.804Z,9.00
2023-04-16T23:23:58.951Z,8.99
2023-04-16T23:28:00.627Z,9.00
2023-04-16T23:32:02.402Z,9.00
2023-04-16T23:36:04.365Z,8.96
2023-04-16T23:40:07.198Z,8.94
2023-04-16T23:44:08.933Z,8.94
2023-04-16T23:48:10.594Z,8.94
2023-04-16T23:52:12.315Z,8.95
2023-04-16T23:56:15.519Z,8.94
